createdAt,value
2017-12-17T00:00:19.648Z,24.81
2017-12-17T00:00:47.825Z,24.82
2017-12-17T00:01:15.921Z,24.81
2017-12-17T00:01:43.960Z,24.85
2017-12-17T00:02:12.102Z,24.82
2017-12-17T00:02:40.228Z,24.79
2017-12-17T00:03:08.211Z,24.82
2017-12-17T00:03:36.379Z,24.81
2017-12-17T00:04:04.427Z,24.84
2017-12-17T00:04:32.529Z,24.81
2017-12-17T00:05:00.529Z,24.82
2017-12-17T00:05:28.654Z,24.75
2017-12-17T00:05:56.793Z,24.84
2017-12-17T00:06:24.715Z,24.74
2017-12-17T00:06:52.856Z,24.79
2017-12-17T00:07:20.994Z,24.81
2017-12-17T00:07:49.256Z,24.77
2017-12-17T00:08:17.394Z,24.74
2017-12-17T00:08:45.559Z,24.68
2017-12-17T00:09:13.801Z,24.69
2017-12-17T00:09:41.929Z,24.74
2017-12-17T00:10:09.951Z,24.68
2017-12-17T00:10:37.971Z,24.66
2017-12-17T00:11:06.024Z,24.61
2017-12-17T00:11:34.108Z,24.62
2017-12-17T00:12:02.282Z,24.59
2017-12-17T00:12:30.324Z,24.63
2017-12-17T00:12:58.366Z,24.55
2017-12-17T00:13:26.491Z,24.55
2017-12-17T00:13:54.696Z,24.56
2017-12-17T00:14:22.764Z,24.58
2017-12-17T00:14:50.804Z,24.48
2017-12-17T00:15:18.846Z,24.59
2017-12-17T00:15:46.987Z,24.51
2017-12-17T00:16:15.134Z,24.55
2017-12-17T00:16:43.135Z,24.48
2017-12-17T00:17:11.271Z,24.56
2017-12-17T00:17:39.310Z,24.53
2017-12-17T00:18:07.397Z,24.5
2017-12-17T00:18:35.531Z,24.58
2017-12-17T00:19:03.598Z,24.59
2017-12-17T00:19:31.693Z,24.59
2017-12-17T00:19:59.858Z,24.53
2017-12-17T00:20:27.953Z,24.48
2017-12-17T00:20:55.999Z,24.5
2017-12-17T00:21:24.004Z,24.58
2017-12-17T00:21:52.177Z,24.55
2017-12-17T00:22:20.321Z,24.5
2017-12-17T00:22:48.438Z,24.55
2017-12-17T00:23:16.587Z,24.41
2017-12-17T00:23:44.508Z,24.46
2017-12-17T00:24:12.287Z,24.43
2017-12-17T00:24:40.403Z,24.46
2017-12-17T00:25:08.421Z,24.38
2017-12-17T00:25:36.556Z,24.41
2017-12-17T00:26:04.629Z,24.34
2017-12-17T00:26:32.556Z,24.31
2017-12-17T00:27:00.709Z,24.36
2017-12-17T00:27:28.732Z,24.32
2017-12-17T00:27:56.860Z,24.36
2017-12-17T00:28:25.003Z,24.37
2017-12-17T00:28:53.172Z,24.31
2017-12-17T00:29:21.395Z,24.36
2017-12-17T00:29:49.545Z,24.32
2017-12-17T00:30:17.606Z,24.34
2017-12-17T00:30:45.750Z,24.37
2017-12-17T00:31:13.808Z,24.29
2017-12-17T00:31:41.822Z,24.36
2017-12-17T00:32:09.936Z,24.28
2017-12-17T00:32:37.859Z,24.31
2017-12-17T00:33:05.974Z,24.34
2017-12-17T00:33:34.073Z,24.32
2017-12-17T00:34:02.242Z,24.4
2017-12-17T00:34:30.380Z,24.32
2017-12-17T00:34:58.497Z,24.37
2017-12-17T00:35:26.525Z,24.41
2017-12-17T00:35:54.675Z,24.34
2017-12-17T00:36:22.823Z,24.32
2017-12-17T00:36:50.994Z,24.38
2017-12-17T00:37:19.162Z,24.34
2017-12-17T00:37:47.321Z,24.32
2017-12-17T00:38:15.501Z,24.28
2017-12-17T00:38:43.436Z,24.28
2017-12-17T00:39:11.695Z,24.26
2017-12-17T00:39:39.629Z,24.21
2017-12-17T00:40:07.807Z,24.24
2017-12-17T00:40:35.954Z,24.21
2017-12-17T00:41:04.055Z,24.21
2017-12-17T00:41:32.076Z,24.21
2017-12-17T00:42:00.222Z,24.24
2017-12-17T00:42:28.288Z,24.22
2017-12-17T00:42:56.305Z,24.14
2017-12-17T00:43:24.394Z,24.09
2017-12-17T00:43:52.528Z,24.18
2017-12-17T00:44:20.729Z,24.03
2017-12-17T00:44:48.747Z,24.13
2017-12-17T00:45:16.885Z,24.1
2017-12-17T00:45:45.034Z,24.07
2017-12-17T00:46:13.150Z,24.09
2017-12-17T00:46:41.301Z,24.03
2017-12-17T00:47:09.447Z,24.01
2017-12-17T00:47:37.368Z,24.04
2017-12-17T00:48:05.384Z,23.99
2017-12-17T00:48:33.435Z,23.94
2017-12-17T00:49:01.580Z,23.96
2017-12-17T00:49:29.617Z,23.99
2017-12-17T00:49:57.739Z,23.92
2017-12-17T00:50:25.850Z,23.91
2017-12-17T00:50:53.911Z,23.94
2017-12-17T00:51:21.977Z,23.91
2017-12-17T00:51:50.102Z,23.96
2017-12-17T00:52:18.240Z,23.88
2017-12-17T00:52:46.347Z,23.88
2017-12-17T00:53:14.434Z,23.86
2017-12-17T00:53:42.477Z,23.91
2017-12-17T00:54:10.584Z,23.88
2017-12-17T00:54:38.433Z,23.88
2017-12-17T00:55:06.544Z,23.94
2017-12-17T00:55:34.674Z,23.92
2017-12-17T00:56:02.743Z,23.99
2017-12-17T00:56:30.899Z,23.89
2017-12-17T00:56:58.940Z,24
2017-12-17T00:57:27.006Z,23.99
2017-12-17T00:57:55.139Z,23.88
2017-12-17T00:58:23.249Z,23.95
2017-12-17T00:58:51.454Z,23.91
2017-12-17T00:59:19.618Z,23.94
2017-12-17T00:59:47.899Z,23.91
2017-12-17T01:00:16.054Z,23.92
2017-12-17T01:00:44.051Z,23.88
2017-12-17T01:01:12.067Z,23.89
2017-12-17T01:01:40.200Z,23.86
2017-12-17T01:02:08.365Z,23.88
2017-12-17T01:02:36.251Z,23.85
2017-12-17T01:03:04.316Z,23.86
2017-12-17T01:03:32.454Z,23.85
2017-12-17T01:04:00.601Z,23.86
2017-12-17T01:04:28.755Z,23.84
2017-12-17T01:04:56.921Z,23.86
2017-12-17T01:05:25.048Z,23.85
2017-12-17T01:05:53.057Z,23.88
2017-12-17T01:06:20.978Z,23.88
2017-12-17T01:06:48.963Z,23.84
2017-12-17T01:07:16.992Z,23.81
2017-12-17T01:07:44.921Z,23.86
2017-12-17T01:08:13.094Z,23.88
2017-12-17T01:08:41.161Z,23.81
2017-12-17T01:09:09.307Z,23.86
2017-12-17T01:09:37.335Z,23.88
2017-12-17T01:10:05.290Z,23.84
2017-12-17T01:10:33.303Z,23.81
2017-12-17T01:11:01.435Z,23.76
2017-12-17T01:11:29.458Z,23.79
2017-12-17T01:11:57.545Z,23.85
2017-12-17T01:12:25.683Z,23.89
2017-12-17T01:12:53.855Z,23.91
2017-12-17T01:13:21.962Z,23.88
2017-12-17T01:13:49.975Z,23.85
2017-12-17T01:14:18.058Z,23.79
2017-12-17T01:14:46.160Z,23.86
2017-12-17T01:15:14.324Z,23.85
2017-12-17T01:15:42.439Z,23.77
2017-12-17T01:16:10.587Z,23.79
2017-12-17T01:16:38.734Z,23.79
2017-12-17T01:17:06.884Z,23.79
2017-12-17T01:17:34.790Z,23.86
2017-12-17T01:18:02.948Z,23.88
2017-12-17T01:18:31.065Z,23.84
2017-12-17T01:18:59.223Z,23.81
2017-12-17T01:19:27.293Z,23.79
2017-12-17T01:19:55.323Z,23.77
2017-12-17T01:20:23.160Z,23.77
2017-12-17T01:20:51.283Z,23.85
2017-12-17T01:21:19.337Z,23.84
2017-12-17T01:21:47.338Z,23.89
2017-12-17T01:22:15.331Z,23.86
2017-12-17T01:22:43.474Z,23.86
2017-12-17T01:23:11.578Z,23.88
2017-12-17T01:23:39.786Z,23.89
2017-12-17T01:24:07.852Z,23.82
2017-12-17T01:24:35.990Z,23.77
2017-12-17T01:25:04.049Z,23.85
2017-12-17T01:25:31.963Z,23.86
2017-12-17T01:26:00.783Z,23.85
2017-12-17T01:26:28.938Z,23.85
2017-12-17T01:26:57.080Z,23.85
2017-12-17T01:27:25.181Z,23.81
2017-12-17T01:27:53.341Z,23.88
2017-12-17T01:28:21.509Z,23.92
2017-12-17T01:28:49.644Z,23.89
2017-12-17T01:29:17.679Z,23.89
2017-12-17T01:29:45.896Z,23.86
2017-12-17T01:30:14.044Z,23.86
2017-12-17T01:30:42.170Z,23.82
2017-12-17T01:31:10.239Z,23.85
2017-12-17T01:31:38.330Z,23.85
2017-12-17T01:32:06.531Z,23.82
2017-12-17T01:32:34.689Z,23.82
2017-12-17T01:33:02.641Z,23.79
2017-12-17T01:33:30.662Z,23.86
2017-12-17T01:33:58.766Z,23.85
2017-12-17T01:34:26.879Z,23.85
2017-12-17T01:34:54.885Z,23.79
2017-12-17T01:35:23.062Z,23.79
2017-12-17T01:35:51.206Z,23.73
2017-12-17T01:36:19.360Z,23.79
2017-12-17T01:36:47.445Z,23.82
2017-12-17T01:37:15.528Z,23.82
2017-12-17T01:37:43.642Z,23.74
2017-12-17T01:38:11.775Z,23.7
2017-12-17T01:38:39.861Z,23.77
2017-12-17T01:39:08.004Z,23.63
2017-12-17T01:39:36.141Z,23.62
2017-12-17T01:40:04.143Z,23.56
2017-12-17T01:40:32.074Z,23.58
2017-12-17T01:41:00.114Z,23.52
2017-12-17T01:41:28.140Z,23.49
2017-12-17T01:41:56.222Z,23.52
2017-12-17T01:42:24.269Z,23.54
2017-12-17T01:42:52.354Z,23.52
2017-12-17T01:43:20.518Z,23.49
2017-12-17T01:43:48.620Z,23.62
2017-12-17T01:44:16.746Z,23.58
2017-12-17T01:44:44.890Z,23.62
2017-12-17T01:45:13.186Z,23.63
2017-12-17T01:45:41.278Z,23.59
2017-12-17T01:46:09.065Z,23.63
2017-12-17T01:46:37.095Z,23.66
2017-12-17T01:47:05.254Z,23.69
2017-12-17T01:47:33.209Z,23.7
2017-12-17T01:48:01.277Z,23.74
2017-12-17T01:48:29.400Z,23.7
2017-12-17T01:48:57.574Z,23.74
2017-12-17T01:49:25.682Z,23.66
2017-12-17T01:49:53.620Z,23.7
2017-12-17T01:50:21.705Z,23.69
2017-12-17T01:50:49.620Z,23.62
2017-12-17T01:51:17.710Z,23.67
2017-12-17T01:51:45.808Z,23.59
2017-12-17T01:52:13.922Z,23.7
2017-12-17T01:52:41.864Z,23.59
2017-12-17T01:53:10.027Z,23.58
2017-12-17T01:53:38.053Z,23.66
2017-12-17T01:54:06.336Z,23.64
2017-12-17T01:54:34.367Z,23.59
2017-12-17T01:55:02.513Z,23.69
2017-12-17T01:55:30.531Z,23.54
2017-12-17T01:55:58.676Z,23.55
2017-12-17T01:56:26.811Z,23.58
2017-12-17T01:56:54.881Z,23.52
2017-12-17T01:57:23.056Z,23.52
2017-12-17T01:57:51.232Z,23.55
2017-12-17T01:58:19.330Z,23.55
2017-12-17T01:58:47.464Z,23.54
2017-12-17T01:59:15.627Z,23.42
2017-12-17T01:59:43.795Z,23.45
2017-12-17T02:00:11.849Z,23.55
2017-12-17T02:00:39.848Z,23.55
2017-12-17T02:01:07.984Z,23.56
2017-12-17T02:01:36.147Z,23.52
2017-12-17T02:02:04.181Z,23.51
2017-12-17T02:02:32.056Z,23.56
2017-12-17T02:03:00.182Z,23.55
2017-12-17T02:03:28.272Z,23.51
2017-12-17T02:03:56.427Z,23.52
2017-12-17T02:04:24.484Z,23.54
2017-12-17T02:04:52.641Z,23.52
2017-12-17T02:05:20.738Z,23.39
2017-12-17T02:05:48.754Z,23.44
2017-12-17T02:06:16.887Z,23.4
2017-12-17T02:06:44.868Z,23.36
2017-12-17T02:07:12.880Z,23.44
2017-12-17T02:07:40.967Z,23.42
2017-12-17T02:08:09.104Z,23.34
2017-12-17T02:08:37.177Z,23.36
2017-12-17T02:09:05.302Z,23.4
2017-12-17T02:09:33.327Z,23.42
2017-12-17T02:10:01.377Z,23.37
2017-12-17T02:10:29.607Z,23.39
2017-12-17T02:10:57.715Z,23.37
2017-12-17T02:11:25.788Z,23.28
2017-12-17T02:11:53.770Z,23.36
2017-12-17T02:12:21.873Z,23.29
2017-12-17T02:12:50.028Z,23.28
2017-12-17T02:13:18.145Z,23.39
2017-12-17T02:13:46.308Z,23.45
2017-12-17T02:14:14.460Z,23.36
2017-12-17T02:14:42.599Z,23.47
2017-12-17T02:15:10.764Z,23.37
2017-12-17T02:15:38.981Z,23.39
2017-12-17T02:16:07.097Z,23.45
2017-12-17T02:16:35.157Z,23.47
2017-12-17T02:17:03.338Z,23.48
2017-12-17T02:17:31.512Z,23.45
2017-12-17T02:17:59.590Z,23.47
2017-12-17T02:18:27.621Z,23.47
2017-12-17T02:18:55.729Z,23.42
2017-12-17T02:19:23.864Z,23.48
2017-12-17T02:19:51.794Z,23.49
2017-12-17T02:20:19.961Z,23.49
2017-12-17T02:20:48.078Z,23.42
2017-12-17T02:21:16.202Z,23.42
2017-12-17T02:21:44.240Z,23.47
2017-12-17T02:22:12.378Z,23.42
2017-12-17T02:22:40.532Z,23.4
2017-12-17T02:23:08.608Z,23.45
2017-12-17T02:23:36.746Z,23.52
2017-12-17T02:24:04.880Z,23.58
2017-12-17T02:24:33.050Z,23.51
2017-12-17T02:25:01.086Z,23.52
2017-12-17T02:25:29.224Z,23.56
2017-12-17T02:25:57.257Z,23.49
2017-12-17T02:26:25.345Z,23.56
2017-12-17T02:26:53.398Z,23.54
2017-12-17T02:27:21.454Z,23.58
2017-12-17T02:27:49.539Z,23.51
2017-12-17T02:28:17.351Z,23.49
2017-12-17T02:28:45.351Z,23.55
2017-12-17T02:29:13.520Z,23.52
2017-12-17T02:29:41.664Z,23.44
2017-12-17T02:30:09.694Z,23.55
2017-12-17T02:30:37.857Z,23.47
2017-12-17T02:31:05.851Z,23.45
2017-12-17T02:31:34.018Z,23.47
2017-12-17T02:32:02.180Z,23.42
2017-12-17T02:32:30.273Z,23.47
2017-12-17T02:32:58.409Z,23.44
2017-12-17T02:33:26.537Z,23.36
2017-12-17T02:33:54.641Z,23.39
2017-12-17T02:34:22.812Z,23.36
2017-12-17T02:34:50.921Z,23.32
2017-12-17T02:35:19.048Z,23.28
2017-12-17T02:35:47.183Z,23.26
2017-12-17T02:36:15.237Z,23.25
2017-12-17T02:36:43.382Z,23.26
2017-12-17T02:37:11.172Z,23.29
2017-12-17T02:37:39.296Z,23.25
2017-12-17T02:38:07.352Z,23.36
2017-12-17T02:38:35.344Z,23.39
2017-12-17T02:39:03.481Z,23.39
2017-12-17T02:39:31.661Z,23.36
2017-12-17T02:39:59.827Z,23.44
2017-12-17T02:40:27.959Z,23.37
2017-12-17T02:40:56.293Z,23.4
2017-12-17T02:41:24.438Z,23.33
2017-12-17T02:41:52.276Z,23.36
2017-12-17T02:42:20.432Z,23.4
2017-12-17T02:42:48.593Z,23.47
2017-12-17T02:43:16.721Z,23.45
2017-12-17T02:43:44.841Z,23.55
2017-12-17T02:44:12.871Z,23.45
2017-12-17T02:44:41.038Z,23.49
2017-12-17T02:45:08.963Z,23.55
2017-12-17T02:45:37.140Z,23.58
2017-12-17T02:46:05.296Z,23.52
2017-12-17T02:46:33.428Z,23.52
2017-12-17T02:47:01.450Z,23.54
2017-12-17T02:47:29.483Z,23.55
2017-12-17T02:47:57.629Z,23.55
2017-12-17T02:48:25.566Z,23.54
2017-12-17T02:48:53.684Z,23.55
2017-12-17T02:49:21.814Z,23.58
2017-12-17T02:49:49.839Z,23.52
2017-12-17T02:50:17.948Z,23.55
2017-12-17T02:50:46.090Z,23.55
2017-12-17T02:51:14.093Z,23.45
2017-12-17T02:51:42.257Z,23.45
2017-12-17T02:52:10.371Z,23.47
2017-12-17T02:52:38.305Z,23.44
2017-12-17T02:53:06.533Z,23.42
2017-12-17T02:53:34.632Z,23.4
2017-12-17T02:54:02.810Z,23.37
2017-12-17T02:54:30.946Z,23.4
2017-12-17T02:54:58.973Z,23.39
2017-12-17T02:55:27.122Z,23.36
2017-12-17T02:55:55.261Z,23.49
2017-12-17T02:56:23.303Z,23.4
2017-12-17T02:56:51.326Z,23.4
2017-12-17T02:57:19.363Z,23.39
2017-12-17T02:57:47.478Z,23.42
2017-12-17T02:58:15.671Z,23.45
2017-12-17T02:58:43.727Z,23.39
2017-12-17T02:59:11.864Z,23.42
2017-12-17T02:59:39.982Z,23.58
2017-12-17T03:00:08.089Z,23.47
2017-12-17T03:00:36.236Z,23.52
2017-12-17T03:01:04.383Z,23.52
2017-12-17T03:01:32.580Z,23.55
2017-12-17T03:02:00.714Z,23.54
2017-12-17T03:02:28.846Z,23.55
2017-12-17T03:02:57.027Z,23.54
2017-12-17T03:03:25.050Z,23.58
2017-12-17T03:03:53.152Z,23.52
2017-12-17T03:04:21.248Z,23.52
2017-12-17T03:04:49.418Z,23.55
2017-12-17T03:05:17.361Z,23.52
2017-12-17T03:05:45.402Z,23.55
2017-12-17T03:06:13.442Z,23.55
2017-12-17T03:06:41.579Z,23.58
2017-12-17T03:07:09.729Z,23.52
2017-12-17T03:07:37.696Z,23.45
2017-12-17T03:08:05.788Z,23.48
2017-12-17T03:08:33.837Z,23.48
2017-12-17T03:09:02.008Z,23.44
2017-12-17T03:09:30.154Z,23.42
2017-12-17T03:09:58.267Z,23.37
2017-12-17T03:10:26.429Z,23.49
2017-12-17T03:10:54.521Z,23.45
2017-12-17T03:11:22.670Z,23.37
2017-12-17T03:11:50.822Z,23.33
2017-12-17T03:12:18.841Z,23.36
2017-12-17T03:12:46.973Z,23.28
2017-12-17T03:13:15.097Z,23.29
2017-12-17T03:13:43.190Z,23.28
2017-12-17T03:14:11.226Z,23.28
2017-12-17T03:14:39.397Z,23.25
2017-12-17T03:15:07.528Z,23.21
2017-12-17T03:15:35.675Z,23.25
2017-12-17T03:16:03.869Z,23.2
2017-12-17T03:16:32.029Z,23.23
2017-12-17T03:17:00.077Z,23.28
2017-12-17T03:17:28.232Z,23.21
2017-12-17T03:17:56.356Z,23.23
2017-12-17T03:18:24.495Z,23.17
2017-12-17T03:18:52.630Z,23.18
2017-12-17T03:19:20.785Z,23.2
2017-12-17T03:19:48.818Z,23.16
2017-12-17T03:20:16.985Z,23.2
2017-12-17T03:20:45.130Z,23.16
2017-12-17T03:21:13.271Z,23.17
2017-12-17T03:21:41.397Z,23.17
2017-12-17T03:22:09.386Z,23.08
2017-12-17T03:22:37.481Z,23.07
2017-12-17T03:23:05.636Z,23.08
2017-12-17T03:23:33.644Z,23.02
2017-12-17T03:24:01.827Z,22.96
2017-12-17T03:24:29.938Z,22.99
2017-12-17T03:24:58.034Z,22.95
2017-12-17T03:25:26.050Z,23.02
2017-12-17T03:25:54.188Z,23.01
2017-12-17T03:26:22.340Z,22.99
2017-12-17T03:26:50.437Z,22.95
2017-12-17T03:27:18.606Z,22.95
2017-12-17T03:27:46.685Z,23.02
2017-12-17T03:28:14.739Z,22.99
2017-12-17T03:28:42.847Z,22.99
2017-12-17T03:29:10.957Z,22.98
2017-12-17T03:29:39.049Z,22.99
2017-12-17T03:30:07.184Z,22.98
2017-12-17T03:30:35.234Z,23.02
2017-12-17T03:31:03.375Z,22.96
2017-12-17T03:31:31.598Z,22.99
2017-12-17T03:31:59.768Z,22.95
2017-12-17T03:32:27.707Z,23.02
2017-12-17T03:32:55.847Z,22.95
2017-12-17T03:33:23.944Z,22.91
2017-12-17T03:33:52.120Z,22.81
2017-12-17T03:34:20.235Z,22.83
2017-12-17T03:34:48.169Z,22.84
2017-12-17T03:35:16.030Z,22.88
2017-12-17T03:35:44.173Z,22.74
2017-12-17T03:36:12.197Z,22.77
2017-12-17T03:36:40.288Z,22.78
2017-12-17T03:37:08.298Z,22.67
2017-12-17T03:37:36.317Z,22.68
2017-12-17T03:38:04.336Z,22.63
2017-12-17T03:38:32.483Z,22.68
2017-12-17T03:39:00.614Z,22.68
2017-12-17T03:39:28.695Z,22.67
2017-12-17T03:39:56.800Z,22.65
2017-12-17T03:40:24.917Z,22.65
2017-12-17T03:40:52.960Z,22.63
2017-12-17T03:41:20.890Z,22.67
2017-12-17T03:41:48.932Z,22.63
2017-12-17T03:42:17.086Z,22.55
2017-12-17T03:42:45.246Z,22.67
2017-12-17T03:43:13.359Z,22.63
2017-12-17T03:43:41.413Z,22.63
2017-12-17T03:44:09.540Z,22.62
2017-12-17T03:44:37.662Z,22.61
2017-12-17T03:45:05.812Z,22.62
2017-12-17T03:45:33.971Z,22.53
2017-12-17T03:46:02.104Z,22.65
2017-12-17T03:46:30.446Z,22.63
2017-12-17T03:46:58.579Z,22.61
2017-12-17T03:47:26.603Z,22.62
2017-12-17T03:47:54.713Z,22.47
2017-12-17T03:48:22.736Z,22.63
2017-12-17T03:48:50.888Z,22.53
2017-12-17T03:49:19.004Z,22.56
2017-12-17T03:49:47.034Z,22.68
2017-12-17T03:50:15.191Z,22.63
2017-12-17T03:50:43.340Z,22.62
2017-12-17T03:51:11.527Z,22.68
2017-12-17T03:51:39.635Z,22.58
2017-12-17T03:52:07.568Z,22.61
2017-12-17T03:52:35.697Z,22.7
2017-12-17T03:53:03.846Z,22.65
2017-12-17T03:53:31.969Z,22.67
2017-12-17T03:53:59.989Z,22.67
2017-12-17T03:54:28.027Z,22.65
2017-12-17T03:54:56.169Z,22.68
2017-12-17T03:55:24.305Z,22.61
2017-12-17T03:55:52.448Z,22.62
2017-12-17T03:56:20.608Z,22.63
2017-12-17T03:56:48.742Z,22.65
2017-12-17T03:57:16.861Z,22.62
2017-12-17T03:57:44.887Z,22.71
2017-12-17T03:58:12.833Z,22.73
2017-12-17T03:58:40.961Z,22.7
2017-12-17T03:59:09.125Z,22.68
2017-12-17T03:59:37.254Z,22.68
2017-12-17T04:00:05.137Z,22.68
2017-12-17T04:00:33.266Z,22.73
2017-12-17T04:01:01.408Z,22.65
2017-12-17T04:01:29.615Z,22.67
2017-12-17T04:01:57.755Z,22.63
2017-12-17T04:02:25.691Z,22.63
2017-12-17T04:02:53.838Z,22.65
2017-12-17T04:03:21.986Z,22.71
2017-12-17T04:03:49.930Z,22.71
2017-12-17T04:04:17.990Z,22.67
2017-12-17T04:04:45.974Z,22.73
2017-12-17T04:05:14.122Z,22.68
2017-12-17T04:05:42.178Z,22.63
2017-12-17T04:06:10.303Z,22.63
2017-12-17T04:06:38.268Z,22.62
2017-12-17T04:07:06.404Z,22.52
2017-12-17T04:07:34.527Z,22.55
2017-12-17T04:08:02.518Z,22.53
2017-12-17T04:08:30.641Z,22.51
2017-12-17T04:08:58.683Z,22.51
2017-12-17T04:09:26.707Z,22.53
2017-12-17T04:09:54.839Z,22.55
2017-12-17T04:10:22.850Z,22.55
2017-12-17T04:10:50.964Z,22.49
2017-12-17T04:11:19.123Z,22.51
2017-12-17T04:11:47.456Z,22.49
2017-12-17T04:12:15.495Z,22.55
2017-12-17T04:12:43.662Z,22.47
2017-12-17T04:13:11.761Z,22.52
2017-12-17T04:13:39.786Z,22.52
2017-12-17T04:14:07.924Z,22.49
2017-12-17T04:14:36.087Z,22.46
2017-12-17T04:15:04.283Z,22.51
2017-12-17T04:15:32.319Z,22.51
2017-12-17T04:16:00.364Z,22.53
2017-12-17T04:16:28.221Z,22.47
2017-12-17T04:16:56.295Z,22.41
2017-12-17T04:17:24.338Z,22.53
2017-12-17T04:17:52.483Z,22.44
2017-12-17T04:18:20.640Z,22.46
2017-12-17T04:18:48.728Z,22.47
2017-12-17T04:19:16.869Z,22.47
2017-12-17T04:19:45.029Z,22.51
2017-12-17T04:20:13.081Z,22.47
2017-12-17T04:20:41.134Z,22.47
2017-12-17T04:21:09.041Z,22.47
2017-12-17T04:21:37.211Z,22.53
2017-12-17T04:22:05.378Z,22.41
2017-12-17T04:22:33.313Z,22.44
2017-12-17T04:23:01.361Z,22.47
2017-12-17T04:23:29.499Z,22.49
2017-12-17T04:23:57.520Z,22.41
2017-12-17T04:24:25.706Z,22.46
2017-12-17T04:24:53.725Z,22.49
2017-12-17T04:25:21.610Z,22.41
2017-12-17T04:25:49.788Z,22.43
2017-12-17T04:26:17.953Z,22.51
2017-12-17T04:26:46.246Z,22.37
2017-12-17T04:27:14.363Z,22.41
2017-12-17T04:27:42.509Z,22.4
2017-12-17T04:28:10.614Z,22.36
2017-12-17T04:28:38.807Z,22.37
2017-12-17T04:29:06.960Z,22.38
2017-12-17T04:29:35.111Z,22.37
2017-12-17T04:30:03.238Z,22.4
2017-12-17T04:30:31.296Z,22.3
2017-12-17T04:30:59.326Z,22.31
2017-12-17T04:31:27.341Z,22.36
2017-12-17T04:31:55.605Z,22.33
2017-12-17T04:32:23.721Z,22.36
2017-12-17T04:32:51.877Z,22.31
2017-12-17T04:33:20.053Z,22.31
2017-12-17T04:33:48.188Z,22.34
2017-12-17T04:34:16.248Z,22.28
2017-12-17T04:34:44.421Z,22.31
2017-12-17T04:35:12.514Z,22.31
2017-12-17T04:35:40.646Z,22.31
2017-12-17T04:36:08.683Z,22.22
2017-12-17T04:36:36.814Z,22.23
2017-12-17T04:37:04.938Z,22.23
2017-12-17T04:37:32.937Z,22.18
2017-12-17T04:38:00.973Z,22.18
2017-12-17T04:38:29.126Z,22.18
2017-12-17T04:38:57.124Z,22.21
2017-12-17T04:39:25.223Z,22.12
2017-12-17T04:39:53.441Z,22.07
2017-12-17T04:40:21.522Z,22.01
2017-12-17T04:40:49.446Z,22.15
2017-12-17T04:41:17.549Z,22
2017-12-17T04:41:45.655Z,22.07
2017-12-17T04:42:13.783Z,22.08
2017-12-17T04:42:41.834Z,22.03
2017-12-17T04:43:09.861Z,21.99
2017-12-17T04:43:37.991Z,22
2017-12-17T04:44:05.960Z,21.97
2017-12-17T04:44:34.128Z,22.01
2017-12-17T04:45:02.285Z,21.99
2017-12-17T04:45:30.473Z,21.96
2017-12-17T04:45:58.494Z,21.91
2017-12-17T04:46:26.465Z,21.96
2017-12-17T04:46:54.608Z,21.89
2017-12-17T04:47:22.857Z,21.94
2017-12-17T04:47:50.986Z,21.92
2017-12-17T04:48:19.077Z,21.94
2017-12-17T04:48:47.128Z,21.99
2017-12-17T04:49:15.259Z,21.89
2017-12-17T04:49:43.361Z,21.96
2017-12-17T04:50:11.535Z,21.94
2017-12-17T04:50:39.559Z,21.88
2017-12-17T04:51:07.672Z,21.92
2017-12-17T04:51:35.843Z,21.8
2017-12-17T04:52:03.971Z,21.83
2017-12-17T04:52:32.155Z,21.85
2017-12-17T04:53:00.278Z,21.84
2017-12-17T04:53:28.451Z,21.84
2017-12-17T04:53:56.560Z,21.8
2017-12-17T04:54:24.696Z,21.78
2017-12-17T04:54:52.789Z,21.81
2017-12-17T04:55:20.883Z,21.75
2017-12-17T04:55:48.927Z,21.8
2017-12-17T04:56:16.974Z,21.75
2017-12-17T04:56:45.068Z,21.7
2017-12-17T04:57:13.186Z,21.69
2017-12-17T04:57:41.276Z,21.69
2017-12-17T04:58:09.433Z,21.62
2017-12-17T04:58:37.543Z,21.68
2017-12-17T04:59:05.735Z,21.65
2017-12-17T04:59:33.775Z,21.8
2017-12-17T05:00:01.892Z,21.69
2017-12-17T05:00:30.081Z,21.63
2017-12-17T05:00:58.136Z,21.62
2017-12-17T05:01:26.173Z,21.69
2017-12-17T05:01:54.177Z,21.68
2017-12-17T05:02:22.530Z,21.69
2017-12-17T05:02:50.684Z,21.65
2017-12-17T05:03:18.627Z,21.68
2017-12-17T05:03:46.718Z,21.69
2017-12-17T05:04:14.799Z,21.65
2017-12-17T05:04:42.947Z,21.62
2017-12-17T05:05:11.085Z,21.65
2017-12-17T05:05:39.098Z,21.65
2017-12-17T05:06:07.120Z,21.66
2017-12-17T05:06:35.049Z,21.63
2017-12-17T05:07:03.208Z,21.54
2017-12-17T05:07:31.333Z,21.6
2017-12-17T05:07:59.459Z,21.54
2017-12-17T05:08:27.593Z,21.62
2017-12-17T05:08:55.595Z,21.65
2017-12-17T05:09:23.648Z,21.58
2017-12-17T05:09:51.690Z,21.53
2017-12-17T05:10:19.657Z,21.54
2017-12-17T05:10:47.791Z,21.5
2017-12-17T05:11:15.828Z,21.51
2017-12-17T05:11:43.950Z,21.53
2017-12-17T05:12:12.091Z,21.58
2017-12-17T05:12:40.209Z,21.6
2017-12-17T05:13:08.374Z,21.65
2017-12-17T05:13:36.492Z,21.58
2017-12-17T05:14:04.378Z,21.54
2017-12-17T05:14:32.318Z,21.58
2017-12-17T05:15:00.471Z,21.62
2017-12-17T05:15:28.500Z,21.51
2017-12-17T05:15:56.637Z,21.58
2017-12-17T05:16:24.701Z,21.54
2017-12-17T05:16:52.868Z,21.53
2017-12-17T05:17:21.172Z,21.53
2017-12-17T05:17:49.206Z,21.54
2017-12-17T05:18:17.340Z,21.53
2017-12-17T05:18:45.470Z,21.66
2017-12-17T05:19:13.564Z,21.62
2017-12-17T05:19:41.726Z,21.62
2017-12-17T05:20:09.844Z,21.66
2017-12-17T05:20:38.019Z,21.7
2017-12-17T05:21:06.160Z,21.62
2017-12-17T05:21:34.235Z,21.68
2017-12-17T05:22:02.321Z,21.84
2017-12-17T05:22:30.263Z,21.75
2017-12-17T05:22:58.390Z,21.81
2017-12-17T05:23:26.384Z,21.78
2017-12-17T05:23:54.381Z,21.83
2017-12-17T05:24:22.532Z,21.88
2017-12-17T05:24:50.600Z,21.8
2017-12-17T05:25:18.737Z,21.89
2017-12-17T05:25:46.811Z,21.89
2017-12-17T05:26:14.979Z,21.88
2017-12-17T05:26:42.992Z,21.96
2017-12-17T05:27:11.160Z,21.92
2017-12-17T05:27:39.270Z,21.85
2017-12-17T05:28:07.422Z,21.88
2017-12-17T05:28:35.492Z,21.89
2017-12-17T05:29:03.415Z,21.94
2017-12-17T05:29:31.589Z,21.96
2017-12-17T05:29:59.716Z,21.92
2017-12-17T05:30:27.845Z,21.99
2017-12-17T05:30:55.806Z,21.94
2017-12-17T05:31:23.988Z,21.84
2017-12-17T05:31:51.919Z,21.91
2017-12-17T05:32:20.053Z,21.97
2017-12-17T05:32:48.304Z,21.92
2017-12-17T05:33:16.350Z,21.91
2017-12-17T05:33:44.467Z,21.94
2017-12-17T05:34:12.643Z,21.91
2017-12-17T05:34:40.753Z,21.94
2017-12-17T05:35:08.864Z,21.92
2017-12-17T05:35:36.907Z,21.89
2017-12-17T05:36:04.948Z,21.91
2017-12-17T05:36:33.080Z,21.92
2017-12-17T05:37:01.248Z,21.83
2017-12-17T05:37:29.392Z,21.85
2017-12-17T05:37:57.704Z,21.91
2017-12-17T05:38:25.769Z,21.81
2017-12-17T05:38:53.944Z,21.81
2017-12-17T05:39:22.089Z,21.8
2017-12-17T05:39:50.118Z,21.83
2017-12-17T05:40:18.174Z,21.89
2017-12-17T05:40:46.253Z,21.85
2017-12-17T05:41:14.390Z,21.81
2017-12-17T05:41:42.544Z,21.8
2017-12-17T05:42:10.588Z,21.85
2017-12-17T05:42:38.772Z,21.83
2017-12-17T05:43:06.881Z,21.77
2017-12-17T05:43:35.016Z,21.83
2017-12-17T05:44:03.169Z,21.83
2017-12-17T05:44:31.220Z,21.88
2017-12-17T05:44:59.252Z,21.85
2017-12-17T05:45:27.376Z,21.89
2017-12-17T05:45:55.466Z,21.84
2017-12-17T05:46:23.518Z,21.85
2017-12-17T05:46:51.666Z,21.89
2017-12-17T05:47:19.773Z,21.83
2017-12-17T05:47:48.033Z,21.91
2017-12-17T05:48:16.189Z,21.8
2017-12-17T05:48:44.362Z,21.83
2017-12-17T05:49:12.478Z,21.89
2017-12-17T05:49:40.513Z,21.89
2017-12-17T05:50:08.635Z,21.89
2017-12-17T05:50:36.749Z,21.78
2017-12-17T05:51:04.785Z,21.77
2017-12-17T05:51:32.876Z,21.84
2017-12-17T05:52:00.927Z,21.84
2017-12-17T05:52:29.094Z,21.84
2017-12-17T05:52:57.188Z,21.83
2017-12-17T05:53:25.202Z,21.8
2017-12-17T05:53:53.235Z,21.84
2017-12-17T05:54:21.199Z,21.83
2017-12-17T05:54:49.264Z,21.8
2017-12-17T05:55:17.397Z,21.8
2017-12-17T05:55:45.481Z,21.84
2017-12-17T05:56:13.595Z,21.8
2017-12-17T05:56:41.623Z,21.72
2017-12-17T05:57:09.751Z,21.8
2017-12-17T05:57:37.863Z,21.75
2017-12-17T05:58:05.990Z,21.66
2017-12-17T05:58:34.026Z,21.7
2017-12-17T05:59:02.180Z,21.69
2017-12-17T05:59:30.310Z,21.69
2017-12-17T05:59:58.413Z,21.7
2017-12-17T06:00:26.554Z,21.75
2017-12-17T06:00:54.567Z,21.68
2017-12-17T06:01:22.683Z,21.65
2017-12-17T06:01:50.703Z,21.72
2017-12-17T06:02:18.812Z,21.7
2017-12-17T06:02:46.828Z,21.78